Time;durP1;ratioP1;P1;durP2;ratioP2;P2;SDS_P1;SDS_P2;PMS_P1;PMS_P2;Temp;Humidity;BMP_temperature;BMP_pressure;BME280_temperature;BME280_humidity;BME280_pressure;Samples;Min_cycle;Max_cycle;Signal;HPM_P1;HPM_P2
2023/02/04 00:01:38;;;;;;;20.70;4.40;;;;;;;;;;5036208;28;20924;-76
2023/02/04 00:04:04;;;;;;;21.38;3.67;;;;;;;;;;5036130;28;20407;-77
2023/02/04 00:06:30;;;;;;;14.02;3.50;;;;;;;;;;5035268;28;20182;-76
2023/02/04 00:08:56;;;;;;;15.50;4.00;;;;;;;;;;5036295;28;20184;-76
2023/02/04 00:11:22;;;;;;;22.67;5.17;;;;;;;;;;5036037;28;20488;-76
2023/02/04 00:13:48;;;;;;;16.63;3.53;;;;;;;;;;5034934;28;20479;-76
2023/02/04 00:16:14;;;;;;;16.40;3.60;;;;;;;;;;5036245;28;20191;-76
2023/02/04 00:18:40;;;;;;;33.60;4.67;;;;;;;;;;5036127;28;20619;-79
2023/02/04 00:21:06;;;;;;;17.40;4.50;;;;;;;;;;5035592;28;20780;-77
2023/02/04 00:23:32;;;;;;;20.80;5.38;;;;;;;;;;5036121;28;20412;-77
2023/02/04 00:25:58;;;;;;;20.35;4.38;;;;;;;;;;5035833;28;20178;-77
2023/02/04 00:28:23;;;;;;;19.47;4.87;;;;;;;;;;5034687;28;20548;-76
2023/02/04 00:30:49;;;;;;;23.23;3.90;;;;;;;;;;5034607;28;20456;-77
2023/02/04 00:33:15;;;;;;;17.33;4.13;;;;;;;;;;5036367;28;20409;-77
2023/02/04 00:35:41;;;;;;;15.57;4.43;;;;;;;;;;5035912;28;20410;-79
2023/02/04 00:38:07;;;;;;;23.63;4.73;;;;;;;;;;5050965;28;20181;-77
2023/02/04 00:40:33;;;;;;;15.50;3.43;;;;;;;;;;5034948;28;20424;-76
2023/02/04 00:42:59;;;;;;;24.52;4.20;;;;;;;;;;5035140;28;20503;-76
2023/02/04 00:45:25;;;;;;;16.83;4.33;;;;;;;;;;5051020;28;20206;-77
2023/02/04 00:47:51;;;;;;;14.47;4.30;;;;;;;;;;5035854;28;20821;-77
2023/02/04 00:50:17;;;;;;;16.13;3.80;;;;;;;;;;5035461;28;20449;-77
2023/02/04 00:52:43;;;;;;;16.38;4.55;;;;;;;;;;5035381;28;20627;-78
2023/02/04 00:55:11;;;;;;;18.10;4.17;;;;;;;;;;5034733;28;20188;-77
2023/02/04 00:57:37;;;;;;;9.88;3.35;;;;;;;;;;5033698;28;20568;-77
2023/02/04 01:00:04;;;;;;;12.98;3.00;;;;;;;;;;5035457;28;20182;-76
2023/02/04 01:02:30;;;;;;;15.07;3.67;;;;;;;;;;5035664;28;20257;-77
2023/02/04 01:04:56;;;;;;;21.65;4.28;;;;;;;;;;5035518;28;20260;-77
2023/02/04 01:07:23;;;;;;;9.37;3.00;;;;;;;;;;5035370;28;20231;-77
2023/02/04 01:09:49;;;;;;;18.23;4.15;;;;;;;;;;5051026;28;20415;-77
2023/02/04 01:12:15;;;;;;;16.57;3.67;;;;;;;;;;5035489;28;20463;-77
2023/02/04 01:14:41;;;;;;;16.98;3.63;;;;;;;;;;5036087;28;20428;-77
2023/02/04 01:17:07;;;;;;;13.90;3.90;;;;;;;;;;5050847;28;20292;-77
2023/02/04 01:19:32;;;;;;;10.68;3.47;;;;;;;;;;5051187;28;20404;-77
2023/02/04 01:21:58;;;;;;;14.53;3.23;;;;;;;;;;5035416;28;20196;-77
2023/02/04 01:24:24;;;;;;;10.82;3.70;;;;;;;;;;5051629;28;20555;-76
2023/02/04 01:26:50;;;;;;;14.70;3.13;;;;;;;;;;5035240;28;20238;-76
2023/02/04 01:29:16;;;;;;;17.07;4.30;;;;;;;;;;5035914;28;20411;-76
2023/02/04 01:31:42;;;;;;;18.03;4.23;;;;;;;;;;5052317;28;20552;-77
2023/02/04 01:34:08;;;;;;;16.57;3.93;;;;;;;;;;5038625;28;20405;-77
2023/02/04 01:36:34;;;;;;;14.77;3.40;;;;;;;;;;5039627;28;20470;-77
2023/02/04 01:39:00;;;;;;;16.53;4.87;;;;;;;;;;5039005;28;20892;-77
2023/02/04 01:41:26;;;;;;;13.18;3.10;;;;;;;;;;5039166;28;20838;-76
2023/02/04 01:43:53;;;;;;;13.63;4.43;;;;;;;;;;5038927;28;20172;-76
2023/02/04 01:46:19;;;;;;;12.27;3.17;;;;;;;;;;5054961;28;20610;-77
2023/02/04 01:48:45;;;;;;;12.68;3.03;;;;;;;;;;5038864;28;20181;-77
2023/02/04 01:51:13;;;;;;;19.75;3.95;;;;;;;;;;5039495;28;20208;-76
2023/02/04 01:53:39;;;;;;;8.85;2.80;;;;;;;;;;5039771;28;20183;-76
2023/02/04 01:56:16;;;;;;;18.70;3.33;;;;;;;;;;5038695;28;20178;-76
2023/02/04 01:58:42;;;;;;;12.25;3.05;;;;;;;;;;5039237;28;20161;-76
2023/02/04 02:01:12;;;;;;;13.00;3.07;;;;;;;;;;5054523;28;20190;-76
2023/02/04 02:03:38;;;;;;;14.48;3.83;;;;;;;;;;5039073;28;20487;-77
2023/02/04 02:06:08;;;;;;;22.27;4.10;;;;;;;;;;5039117;28;20319;-77
2023/02/04 02:08:34;;;;;;;18.75;4.30;;;;;;;;;;5038919;28;20503;-77
2023/02/04 02:11:00;;;;;;;17.40;4.00;;;;;;;;;;5039434;28;20256;-77
2023/02/04 02:13:26;;;;;;;19.00;4.70;;;;;;;;;;5055192;28;20416;-77
2023/02/04 02:15:52;;;;;;;18.97;3.07;;;;;;;;;;5039584;28;20403;-77
2023/02/04 02:18:18;;;;;;;14.90;3.50;;;;;;;;;;5039702;28;20408;-77
2023/02/04 02:20:44;;;;;;;20.97;4.43;;;;;;;;;;5039344;28;20418;-77
2023/02/04 02:23:22;;;;;;;18.27;4.38;;;;;;;;;;5038893;28;20434;-77
2023/02/04 02:25:48;;;;;;;17.92;3.72;;;;;;;;;;5038981;28;20192;-79
2023/02/04 02:28:16;;;;;;;11.60;2.90;;;;;;;;;;5039512;28;20301;-77
2023/02/04 02:30:44;;;;;;;19.52;4.70;;;;;;;;;;5038976;28;20201;-77
2023/02/04 02:33:10;;;;;;;17.50;5.10;;;;;;;;;;5038613;28;20522;-77
2023/02/04 02:35:36;;;;;;;15.95;3.95;;;;;;;;;;5038773;28;20181;-77
2023/02/04 02:38:02;;;;;;;12.53;3.43;;;;;;;;;;5038358;28;20198;-77
2023/02/04 02:40:28;;;;;;;18.70;5.50;;;;;;;;;;5038948;28;20865;-77
2023/02/04 02:42:54;;;;;;;22.58;4.18;;;;;;;;;;5037229;28;20820;-76
2023/02/04 02:45:25;;;;;;;17.83;4.13;;;;;;;;;;5037628;28;20634;-77
2023/02/04 02:47:52;;;;;;;12.73;3.50;;;;;;;;;;5038657;28;20164;-77
2023/02/04 02:50:20;;;;;;;19.33;5.03;;;;;;;;;;5038382;28;20219;-76
2023/02/04 02:52:46;;;;;;;23.13;4.40;;;;;;;;;;5038334;28;20205;-77
2023/02/04 02:55:15;;;;;;;20.02;4.78;;;;;;;;;;5038028;28;20361;-77
2023/02/04 02:57:41;;;;;;;15.85;4.38;;;;;;;;;;5038478;28;20306;-77
2023/02/04 03:00:36;;;;;;;21.70;4.57;;;;;;;;;;5036831;28;20213;-77
2023/02/04 03:03:05;;;;;;;17.02;4.35;;;;;;;;;;5028266;28;20503;-77
2023/02/04 03:05:33;;;;;;;15.57;5.00;;;;;;;;;;5038791;28;20182;-77
2023/02/04 03:07:59;;;;;;;17.13;4.25;;;;;;;;;;5037228;28;20182;-77
2023/02/04 03:10:25;;;;;;;21.23;5.53;;;;;;;;;;5037035;28;20202;-77
2023/02/04 03:12:51;;;;;;;13.97;4.20;;;;;;;;;;5037808;28;20276;-79
2023/02/04 03:15:17;;;;;;;12.75;4.30;;;;;;;;;;5038219;28;20434;-77
2023/02/04 03:17:44;;;;;;;17.48;4.25;;;;;;;;;;5038429;28;20226;-77
2023/02/04 03:20:10;;;;;;;18.35;4.53;;;;;;;;;;5037601;28;20176;-77
2023/02/04 03:22:36;;;;;;;16.80;4.18;;;;;;;;;;5036620;28;20193;-77
2023/02/04 03:25:02;;;;;;;14.63;4.82;;;;;;;;;;5037804;28;20541;-77
2023/02/04 03:27:28;;;;;;;19.10;4.05;;;;;;;;;;5037702;28;20187;-77
2023/02/04 03:29:54;;;;;;;18.70;4.80;;;;;;;;;;5037432;28;20174;-77
2023/02/04 03:32:20;;;;;;;12.73;4.73;;;;;;;;;;5037491;28;20428;-77
2023/02/04 03:34:46;;;;;;;16.07;5.63;;;;;;;;;;5053005;28;20495;-77
2023/02/04 03:37:12;;;;;;;18.53;4.10;;;;;;;;;;5037243;28;20425;-77
2023/02/04 03:39:39;;;;;;;16.33;5.20;;;;;;;;;;5037906;28;20788;-77
2023/02/04 03:42:05;;;;;;;22.52;4.75;;;;;;;;;;5035873;28;20452;-77
2023/02/04 03:44:31;;;;;;;13.97;4.57;;;;;;;;;;5038184;28;20538;-77
2023/02/04 03:46:58;;;;;;;20.03;4.97;;;;;;;;;;5037413;28;20409;-77
2023/02/04 03:49:24;;;;;;;19.92;5.60;;;;;;;;;;5037617;28;20468;-77
2023/02/04 03:51:50;;;;;;;16.50;4.63;;;;;;;;;;5035964;28;20228;-77
2023/02/04 03:54:16;;;;;;;19.17;5.07;;;;;;;;;;5036935;28;20431;-77
2023/02/04 03:56:42;;;;;;;13.53;4.63;;;;;;;;;;5037260;28;20242;-77
2023/02/04 03:59:08;;;;;;;16.90;4.13;;;;;;;;;;5036948;28;20407;-77
2023/02/04 04:01:34;;;;;;;18.10;6.33;;;;;;;;;;5035993;28;20420;-77
2023/02/04 04:04:00;;;;;;;21.42;5.38;;;;;;;;;;5035521;28;20475;-76
2023/02/04 04:06:26;;;;;;;11.53;4.90;;;;;;;;;;5035515;28;20191;-77
2023/02/04 04:08:52;;;;;;;18.10;5.57;;;;;;;;;;5035648;28;20618;-77
2023/02/04 04:11:18;;;;;;;14.83;5.07;;;;;;;;;;5052099;28;20464;-77
2023/02/04 04:13:44;;;;;;;22.27;5.10;;;;;;;;;;5037044;28;20414;-77
2023/02/04 04:16:10;;;;;;;16.50;5.20;;;;;;;;;;5036809;28;20635;-77
2023/02/04 04:18:36;;;;;;;16.50;5.10;;;;;;;;;;5035948;28;20422;-77
2023/02/04 04:21:02;;;;;;;22.45;5.65;;;;;;;;;;5036319;28;20447;-77
2023/02/04 04:23:28;;;;;;;17.70;5.25;;;;;;;;;;5052100;28;20199;-77
2023/02/04 04:25:54;;;;;;;16.70;5.75;;;;;;;;;;5036703;28;20175;-77
2023/02/04 04:28:20;;;;;;;14.87;6.03;;;;;;;;;;5036689;28;20596;-77
2023/02/04 04:30:46;;;;;;;22.17;7.10;;;;;;;;;;5036984;28;20530;-77
2023/02/04 04:33:12;;;;;;;17.63;5.27;;;;;;;;;;5036133;28;20514;-77
2023/02/04 04:35:38;;;;;;;18.50;5.17;;;;;;;;;;5037072;28;20523;-77
2023/02/04 04:38:04;;;;;;;17.37;5.00;;;;;;;;;;5036423;28;20921;-77
2023/02/04 04:40:30;;;;;;;13.73;5.75;;;;;;;;;;5036563;28;20966;-76
2023/02/04 04:42:56;;;;;;;23.40;6.70;;;;;;;;;;5035863;28;20229;-79
2023/02/04 04:45:22;;;;;;;25.85;6.65;;;;;;;;;;5051512;28;20397;-78
2023/02/04 04:47:48;;;;;;;15.20;6.07;;;;;;;;;;5036446;28;20209;-78
2023/02/04 04:50:14;;;;;;;20.73;6.40;;;;;;;;;;5035629;28;20221;-77
2023/02/04 04:52:40;;;;;;;15.55;5.93;;;;;;;;;;5036559;28;20417;-77
2023/02/04 04:55:07;;;;;;;17.10;6.50;;;;;;;;;;5036219;28;20273;-76
2023/02/04 04:57:33;;;;;;;19.42;6.60;;;;;;;;;;5051161;28;20465;-76
2023/02/04 04:59:59;;;;;;;20.42;6.40;;;;;;;;;;5034938;28;20228;-77
2023/02/04 05:02:25;;;;;;;20.40;5.55;;;;;;;;;;5035156;28;20534;-77
2023/02/04 05:04:52;;;;;;;16.27;5.30;;;;;;;;;;5036571;28;20269;-77
2023/02/04 05:07:18;;;;;;;21.88;5.95;;;;;;;;;;5038470;28;20456;-77
2023/02/04 05:09:44;;;;;;;20.33;6.00;;;;;;;;;;5040385;28;20533;-77
2023/02/04 05:12:09;;;;;;;13.73;5.17;;;;;;;;;;5039944;28;20464;-77
2023/02/04 05:14:35;;;;;;;15.37;6.10;;;;;;;;;;5040977;28;20419;-77
2023/02/04 05:17:01;;;;;;;17.40;5.63;;;;;;;;;;5055385;28;20412;-78
2023/02/04 05:19:27;;;;;;;18.60;5.07;;;;;;;;;;5040262;28;20402;-77
2023/02/04 05:21:53;;;;;;;22.50;5.57;;;;;;;;;;5039940;28;20197;-77
2023/02/04 05:24:19;;;;;;;18.10;4.83;;;;;;;;;;5040285;28;20447;-77
2023/02/04 05:26:45;;;;;;;23.10;5.90;;;;;;;;;;5040125;28;20922;-77
2023/02/04 05:29:11;;;;;;;22.80;5.83;;;;;;;;;;5039425;28;20470;-77
2023/02/04 05:31:37;;;;;;;25.57;5.97;;;;;;;;;;5039119;28;20575;-77
2023/02/04 05:34:03;;;;;;;21.63;6.50;;;;;;;;;;5039666;28;20412;-77
2023/02/04 05:36:29;;;;;;;24.53;6.07;;;;;;;;;;5040071;28;20905;-77
2023/02/04 05:38:55;;;;;;;22.90;6.17;;;;;;;;;;5040082;28;20450;-76
2023/02/04 05:41:21;;;;;;;24.27;6.55;;;;;;;;;;5039924;28;20410;-77
2023/02/04 05:43:47;;;;;;;21.77;6.50;;;;;;;;;;5040306;28;20263;-77
2023/02/04 05:46:13;;;;;;;21.80;5.60;;;;;;;;;;5038743;28;20174;-77
2023/02/04 05:48:39;;;;;;;18.92;5.63;;;;;;;;;;5039377;28;20265;-77
2023/02/04 05:51:05;;;;;;;19.85;4.57;;;;;;;;;;5039075;28;20242;-77
2023/02/04 05:53:31;;;;;;;29.40;5.80;;;;;;;;;;5039728;28;20631;-77
2023/02/04 05:55:57;;;;;;;22.63;5.00;;;;;;;;;;5039534;28;20396;-76
2023/02/04 05:58:23;;;;;;;17.60;4.90;;;;;;;;;;5039741;28;20167;-77
2023/02/04 06:00:49;;;;;;;14.80;4.70;;;;;;;;;;5038518;28;20413;-77
2023/02/04 06:03:18;;;;;;;17.55;4.07;;;;;;;;;;5039262;28;20406;-77
2023/02/04 06:05:44;;;;;;;26.70;5.85;;;;;;;;;;5038483;28;20177;-77
2023/02/04 06:08:10;;;;;;;13.88;5.20;;;;;;;;;;5039070;28;20174;-77
2023/02/04 06:10:36;;;;;;;17.60;4.95;;;;;;;;;;5038947;28;20686;-77
2023/02/04 06:13:02;;;;;;;19.13;5.30;;;;;;;;;;5038756;28;20174;-79
2023/02/04 06:15:28;;;;;;;17.10;4.70;;;;;;;;;;5039419;28;20418;-77
2023/02/04 06:17:54;;;;;;;23.40;6.33;;;;;;;;;;5039742;28;20461;-77
2023/02/04 06:20:20;;;;;;;14.85;4.65;;;;;;;;;;5039177;28;20401;-77
2023/02/04 06:22:46;;;;;;;18.70;4.72;;;;;;;;;;5037804;28;20186;-76
2023/02/04 06:25:12;;;;;;;16.52;4.70;;;;;;;;;;5038699;28;20177;-77
2023/02/04 06:27:38;;;;;;;16.33;4.90;;;;;;;;;;5038690;28;20266;-76
2023/02/04 06:30:04;;;;;;;12.30;4.37;;;;;;;;;;5036998;28;20405;-77
2023/02/04 06:32:30;;;;;;;18.52;3.95;;;;;;;;;;5018970;28;20457;-77
2023/02/04 06:34:56;;;;;;;14.60;4.83;;;;;;;;;;5017682;28;20221;-77
2023/02/04 06:37:22;;;;;;;29.17;5.10;;;;;;;;;;5019121;28;20427;-76
2023/02/04 06:39:48;;;;;;;21.30;5.17;;;;;;;;;;5017718;28;20406;-77
2023/02/04 06:42:14;;;;;;;14.77;4.80;;;;;;;;;;5017932;28;20897;-77
2023/02/04 06:44:40;;;;;;;16.98;4.38;;;;;;;;;;5017264;28;20805;-76
2023/02/04 06:47:06;;;;;;;21.43;4.50;;;;;;;;;;5017728;28;20182;-77
2023/02/04 06:49:32;;;;;;;13.10;4.15;;;;;;;;;;5018202;28;20408;-77
2023/02/04 06:51:58;;;;;;;12.80;3.77;;;;;;;;;;5018020;28;20710;-78
2023/02/04 06:54:24;;;;;;;14.07;4.20;;;;;;;;;;5018341;28;20441;-77
2023/02/04 06:56:50;;;;;;;21.98;4.55;;;;;;;;;;5018191;28;20236;-76
2023/02/04 06:59:16;;;;;;;17.30;3.97;;;;;;;;;;5018140;28;20177;-77
2023/02/04 07:01:42;;;;;;;17.83;4.65;;;;;;;;;;5018058;28;20418;-78
2023/02/04 07:04:08;;;;;;;20.63;4.83;;;;;;;;;;5017774;28;20175;-76
2023/02/04 07:06:34;;;;;;;14.57;4.37;;;;;;;;;;5017913;28;20423;-77
2023/02/04 07:08:59;;;;;;;13.70;4.30;;;;;;;;;;5017849;28;20449;-77
2023/02/04 07:11:25;;;;;;;15.27;4.50;;;;;;;;;;5018301;28;21013;-77
2023/02/04 07:13:51;;;;;;;21.70;5.60;;;;;;;;;;5001284;28;20421;-76
2023/02/04 07:16:17;;;;;;;22.20;4.93;;;;;;;;;;5017361;28;20518;-77
2023/02/04 07:18:43;;;;;;;16.70;5.30;;;;;;;;;;5018031;28;20469;-77
2023/02/04 07:21:09;;;;;;;12.80;4.27;;;;;;;;;;5017478;28;20496;-76
2023/02/04 07:23:35;;;;;;;23.17;5.30;;;;;;;;;;5018205;28;20807;-76
2023/02/04 07:26:01;;;;;;;28.60;5.77;;;;;;;;;;5017944;28;20414;-77
2023/02/04 07:28:27;;;;;;;22.05;5.78;;;;;;;;;;5017721;28;20562;-77
2023/02/04 07:30:53;;;;;;;18.27;5.03;;;;;;;;;;5016364;28;20665;-77
2023/02/04 07:33:19;;;;;;;29.83;5.10;;;;;;;;;;5017863;28;20422;-77
2023/02/04 07:35:45;;;;;;;27.57;5.23;;;;;;;;;;5017911;28;20420;-77
2023/02/04 07:38:11;;;;;;;20.90;5.43;;;;;;;;;;5016281;28;20456;-77
2023/02/04 07:40:38;;;;;;;20.60;5.15;;;;;;;;;;5018312;28;20217;-77
2023/02/04 07:43:04;;;;;;;18.25;5.70;;;;;;;;;;5017471;28;20170;-77
2023/02/04 07:45:30;;;;;;;17.25;5.93;;;;;;;;;;5017673;28;20262;-77
2023/02/04 07:47:55;;;;;;;29.37;6.27;;;;;;;;;;5017468;28;20186;-77
2023/02/04 07:50:21;;;;;;;13.37;3.97;;;;;;;;;;5015533;28;20814;-77
2023/02/04 07:52:48;;;;;;;22.63;5.00;;;;;;;;;;5016567;28;20431;-77
2023/02/04 07:55:14;;;;;;;17.02;5.13;;;;;;;;;;5017359;28;20167;-77
2023/02/04 07:57:40;;;;;;;21.30;5.85;;;;;;;;;;5018072;28;20235;-77
2023/02/04 08:00:06;;;;;;;25.67;4.40;;;;;;;;;;5016273;28;20189;-76
2023/02/04 08:02:32;;;;;;;22.15;6.45;;;;;;;;;;5000052;28;20429;-76
2023/02/04 08:04:58;;;;;;;29.48;5.43;;;;;;;;;;5016387;28;20188;-77
2023/02/04 08:07:24;;;;;;;17.27;5.73;;;;;;;;;;5019948;28;20181;-76
2023/02/04 08:09:50;;;;;;;18.83;4.67;;;;;;;;;;5078981;28;20407;-88
2023/02/04 08:12:16;;;;;;;17.50;4.68;;;;;;;;;;5043060;28;20496;-89
2023/02/04 08:14:42;;;;;;;16.80;5.22;;;;;;;;;;5039488;28;20178;-89
2023/02/04 08:17:08;;;;;;;15.03;5.80;;;;;;;;;;5037224;28;20185;-78
2023/02/04 08:19:34;;;;;;;17.90;5.72;;;;;;;;;;5036018;28;20418;-77
2023/02/04 08:22:00;;;;;;;16.10;5.93;;;;;;;;;;5036454;28;20213;-77
2023/02/04 08:24:26;;;;;;;16.17;7.10;;;;;;;;;;5035996;28;20411;-77
2023/02/04 08:26:52;;;;;;;22.40;7.00;;;;;;;;;;5036535;28;20459;-77
2023/02/04 08:29:20;;;;;;;15.52;5.55;;;;;;;;;;5067444;28;20540;-77
2023/02/04 08:31:46;;;;;;;16.90;5.90;;;;;;;;;;5036560;28;20210;-77
2023/02/04 08:34:12;;;;;;;32.38;6.65;;;;;;;;;;5036342;28;20209;-78
2023/02/04 08:36:38;;;;;;;25.35;6.95;;;;;;;;;;5036008;28;20604;-77
2023/02/04 08:39:04;;;;;;;27.80;7.30;;;;;;;;;;5036560;28;20174;-77
2023/02/04 08:41:32;;;;;;;21.90;9.13;;;;;;;;;;5034810;28;20822;-77
2023/02/04 08:43:58;;;;;;;25.02;7.60;;;;;;;;;;5036437;28;20416;-77
2023/02/04 08:46:24;;;;;;;24.30;7.63;;;;;;;;;;5035728;28;20176;-77
2023/02/04 08:48:50;;;;;;;22.37;9.07;;;;;;;;;;5035615;28;20410;-77
2023/02/04 08:51:16;;;;;;;24.20;8.80;;;;;;;;;;5067595;28;20460;-77
2023/02/04 08:53:42;;;;;;;24.53;9.40;;;;;;;;;;5068536;28;20492;-77
2023/02/04 08:56:09;;;;;;;16.20;7.10;;;;;;;;;;5035878;28;20549;-77
2023/02/04 08:58:35;;;;;;;23.90;8.90;;;;;;;;;;5035590;28;20177;-77
2023/02/04 09:01:01;;;;;;;20.58;9.30;;;;;;;;;;5035461;28;20176;-77
2023/02/04 09:03:27;;;;;;;34.60;9.85;;;;;;;;;;5035650;28;20176;-77
2023/02/04 09:05:53;;;;;;;17.85;8.70;;;;;;;;;;5034705;28;20596;-77
2023/02/04 09:08:19;;;;;;;22.90;8.70;;;;;;;;;;5068198;28;20182;-78
2023/02/04 09:10:45;;;;;;;28.77;10.87;;;;;;;;;;5036602;28;20882;-77
2023/02/04 09:13:13;;;;;;;24.35;10.18;;;;;;;;;;5036710;28;20416;-77
2023/02/04 09:15:39;;;;;;;26.38;9.82;;;;;;;;;;5067973;28;20176;-77
2023/02/04 09:18:13;;;;;;;29.10;9.60;;;;;;;;;;5034763;28;20268;-77
2023/02/04 09:20:39;;;;;;;33.47;9.65;;;;;;;;;;5015574;28;20179;-76
2023/02/04 09:23:10;;;;;;;32.53;10.45;;;;;;;;;;5015423;28;20187;-77
2023/02/04 09:25:36;;;;;;;28.85;10.38;;;;;;;;;;5015485;28;20182;-77
2023/02/04 09:28:03;;;;;;;26.67;10.38;;;;;;;;;;5016919;28;20197;-77
2023/02/04 09:30:29;;;;;;;25.60;11.80;;;;;;;;;;5025090;28;20213;-77
2023/02/04 09:32:54;;;;;;;29.98;10.13;;;;;;;;;;5026726;28;20257;-77
2023/02/04 09:35:21;;;;;;;30.30;10.50;;;;;;;;;;5028891;28;20213;-77
2023/02/04 09:37:47;;;;;;;23.55;8.85;;;;;;;;;;5028080;28;20210;-77
2023/02/04 09:40:15;;;;;;;24.67;11.20;;;;;;;;;;5035139;28;20177;-77
2023/02/04 09:42:41;;;;;;;24.05;10.75;;;;;;;;;;5035546;28;20405;-78
2023/02/04 09:45:09;;;;;;;22.90;9.13;;;;;;;;;;5036309;28;20179;-76
2023/02/04 09:47:36;;;;;;;25.70;11.20;;;;;;;;;;5035676;28;20413;-77
2023/02/04 09:50:02;;;;;;;28.45;10.75;;;;;;;;;;5035198;28;20215;-77
2023/02/04 09:52:28;;;;;;;28.95;11.85;;;;;;;;;;5037199;28;20181;-77
2023/02/04 09:54:54;;;;;;;39.85;11.38;;;;;;;;;;5040382;28;20578;-77
2023/02/04 09:57:20;;;;;;;26.38;10.60;;;;;;;;;;5054411;28;20233;-77
2023/02/04 09:59:46;;;;;;;28.73;10.27;;;;;;;;;;5038348;28;20176;-76
2023/02/04 10:02:18;;;;;;;32.08;10.80;;;;;;;;;;5039804;28;20190;-76
2023/02/04 10:04:44;;;;;;;34.50;10.70;;;;;;;;;;5039896;28;20266;-77
2023/02/04 10:07:12;;;;;;;28.63;10.50;;;;;;;;;;5039551;28;20179;-77
2023/02/04 10:09:39;;;;;;;29.98;11.23;;;;;;;;;;5037854;28;20424;-77
2023/02/04 10:12:06;;;;;;;36.08;10.75;;;;;;;;;;5039236;28;20192;-76
2023/02/04 10:14:32;;;;;;;37.60;11.68;;;;;;;;;;5039426;28;20538;-77
2023/02/04 10:16:59;;;;;;;27.30;10.73;;;;;;;;;;5039938;28;20231;-77
2023/02/04 10:19:26;;;;;;;36.70;13.27;;;;;;;;;;5039415;28;20391;-76
2023/02/04 10:21:52;;;;;;;21.95;9.73;;;;;;;;;;5039219;28;20213;-77
2023/02/04 10:24:25;;;;;;;27.17;10.23;;;;;;;;;;5038759;28;20170;-77
2023/02/04 10:26:51;;;;;;;34.83;10.73;;;;;;;;;;5038972;28;20734;-77
2023/02/04 10:29:22;;;;;;;33.63;11.20;;;;;;;;;;5038717;28;20180;-79
2023/02/04 10:31:49;;;;;;;33.65;11.25;;;;;;;;;;5037907;28;20452;-77
2023/02/04 10:34:23;;;;;;;38.80;12.10;;;;;;;;;;5039058;28;20631;-77
2023/02/04 10:36:50;;;;;;;28.02;11.48;;;;;;;;;;5040172;28;20180;-76
2023/02/04 10:39:23;;;;;;;33.00;10.55;;;;;;;;;;5039255;28;20605;-77
2023/02/04 10:41:54;;;;;;;26.60;9.85;;;;;;;;;;5039240;28;20174;-77
2023/02/04 10:44:24;;;;;;;33.40;9.82;;;;;;;;;;5038488;28;20182;-76
2023/02/04 10:46:58;;;;;;;28.15;8.23;;;;;;;;;;5036657;28;20203;-77
2023/02/04 10:49:24;;;;;;;28.90;9.00;;;;;;;;;;5038323;28;20169;-77
2023/02/04 10:51:51;;;;;;;27.80;8.30;;;;;;;;;;5038986;28;20233;-77
2023/02/04 10:54:31;;;;;;;26.63;8.65;;;;;;;;;;5037229;28;20189;-77
2023/02/04 10:57:15;;;;;;;31.67;8.15;;;;;;;;;;5037541;28;20228;-76
2023/02/04 10:59:41;;;;;;;33.00;9.02;;;;;;;;;;5038163;28;20178;-77
2023/02/04 11:02:29;;;;;;;26.55;10.35;;;;;;;;;;5038490;28;20645;-77
2023/02/04 11:04:55;;;;;;;23.17;9.70;;;;;;;;;;5036494;28;20198;-77
2023/02/04 11:07:22;;;;;;;31.33;7.70;;;;;;;;;;5038358;28;20197;-77
2023/02/04 11:09:48;;;;;;;28.27;9.45;;;;;;;;;;5038265;28;20419;-76
2023/02/04 11:12:43;;;;;;;23.00;8.23;;;;;;;;;;5038301;28;20217;-78
2023/02/04 11:15:28;;;;;;;22.77;8.45;;;;;;;;;;5024766;28;20436;-77
2023/02/04 11:18:04;;;;;;;19.15;6.70;;;;;;;;;;5036408;28;20177;-77
2023/02/04 11:20:32;;;;;;;29.45;8.60;;;;;;;;;;5038174;28;20196;-77
2023/02/04 11:23:13;;;;;;;21.83;8.15;;;;;;;;;;5038332;28;20177;-77
2023/02/04 11:25:39;;;;;;;22.25;7.15;;;;;;;;;;5037625;28;20163;-77
2023/02/04 11:28:24;;;;;;;24.33;7.15;;;;;;;;;;5036894;28;20174;-76
2023/02/04 11:30:58;;;;;;;28.17;8.00;;;;;;;;;;5036512;28;20246;-77
2023/02/04 11:33:24;;;;;;;19.80;7.95;;;;;;;;;;5036706;28;20177;-84
2023/02/04 11:36:04;;;;;;;21.15;6.50;;;;;;;;;;5034787;28;20186;-77
2023/02/04 11:38:31;;;;;;;24.83;6.45;;;;;;;;;;5037186;28;20170;-77
2023/02/04 11:40:58;;;;;;;19.50;5.07;;;;;;;;;;5037219;28;20615;-77
2023/02/04 11:43:24;;;;;;;16.10;5.40;;;;;;;;;;5037420;28;20514;-76
2023/02/04 11:46:00;;;;;;;16.20;4.93;;;;;;;;;;5037615;28;20496;-77
2023/02/04 11:48:26;;;;;;;22.90;5.07;;;;;;;;;;5035621;28;20215;-77
2023/02/04 11:51:00;;;;;;;25.83;5.10;;;;;;;;;;5036983;28;20210;-77
2023/02/04 11:53:29;;;;;;;24.80;6.97;;;;;;;;;;5037247;28;20180;-76
2023/02/04 11:55:55;;;;;;;25.38;7.05;;;;;;;;;;5035637;28;20178;-77
2023/02/04 11:58:24;;;;;;;18.98;7.35;;;;;;;;;;5037297;28;20526;-76
2023/02/04 12:00:51;;;;;;;20.15;6.22;;;;;;;;;;5037071;28;20644;-77
2023/02/04 12:03:33;;;;;;;21.30;5.70;;;;;;;;;;5036081;28;20239;-77
2023/02/04 12:05:59;;;;;;;21.20;5.18;;;;;;;;;;5037430;28;20154;-77
2023/02/04 12:08:26;;;;;;;20.33;5.15;;;;;;;;;;5036443;28;20179;-77
2023/02/04 12:10:59;;;;;;;12.93;4.68;;;;;;;;;;5037246;28;20209;-77
2023/02/04 12:13:25;;;;;;;23.83;5.85;;;;;;;;;;5036544;28;20574;-78
2023/02/04 12:16:01;;;;;;;18.70;6.03;;;;;;;;;;5036761;28;20525;-76
2023/02/04 12:18:28;;;;;;;23.27;6.30;;;;;;;;;;5016919;28;20174;-77
2023/02/04 12:20:55;;;;;;;24.75;5.72;;;;;;;;;;5021307;28;20308;-76
2023/02/04 12:23:21;;;;;;;26.20;5.88;;;;;;;;;;5033085;28;20554;-78
2023/02/04 12:25:48;;;;;;;20.85;6.07;;;;;;;;;;5035658;28;20185;-76
2023/02/04 12:28:14;;;;;;;20.65;5.45;;;;;;;;;;5033891;28;20171;-77
2023/02/04 12:30:40;;;;;;;19.95;6.00;;;;;;;;;;5036797;28;20232;-77
2023/02/04 12:33:06;;;;;;;27.17;5.40;;;;;;;;;;5036627;28;20183;-77
2023/02/04 12:35:32;;;;;;;22.88;6.72;;;;;;;;;;5035191;28;20412;-77
2023/02/04 12:37:58;;;;;;;19.35;6.10;;;;;;;;;;5035602;28;20193;-77
2023/02/04 12:40:24;;;;;;;22.53;6.00;;;;;;;;;;5035011;28;20174;-79
2023/02/04 12:42:50;;;;;;;22.38;5.75;;;;;;;;;;5034404;28;20409;-77
2023/02/04 12:45:17;;;;;;;26.13;6.10;;;;;;;;;;5034456;28;20190;-76
2023/02/04 12:47:44;;;;;;;28.50;5.70;;;;;;;;;;5035881;28;20401;-77
2023/02/04 12:50:11;;;;;;;18.70;5.22;;;;;;;;;;5034217;28;20182;-77
2023/02/04 12:52:38;;;;;;;20.88;5.80;;;;;;;;;;5036142;28;20175;-77
2023/02/04 12:55:04;;;;;;;24.25;5.78;;;;;;;;;;5034942;28;20178;-77
2023/02/04 12:57:30;;;;;;;25.90;5.72;;;;;;;;;;5034075;28;20229;-77
2023/02/04 12:59:58;;;;;;;29.15;7.38;;;;;;;;;;5036069;28;20522;-76
2023/02/04 13:02:24;;;;;;;30.48;7.07;;;;;;;;;;5031830;28;20790;-77
2023/02/04 13:04:50;;;;;;;26.17;6.82;;;;;;;;;;5035578;28;20189;-77
2023/02/04 13:07:16;;;;;;;21.70;5.85;;;;;;;;;;5036055;28;20178;-77
2023/02/04 13:09:44;;;;;;;20.97;5.50;;;;;;;;;;5033981;28;20514;-77
2023/02/04 13:12:12;;;;;;;21.90;6.00;;;;;;;;;;5035457;28;20502;-77
2023/02/04 13:14:38;;;;;;;26.80;5.82;;;;;;;;;;5033319;28;20171;-76
2023/02/04 13:17:04;;;;;;;20.70;4.97;;;;;;;;;;5036235;28;20178;-77
2023/02/04 13:19:31;;;;;;;22.47;5.60;;;;;;;;;;5035948;28;20217;-77
2023/02/04 13:21:57;;;;;;;24.35;6.35;;;;;;;;;;5028384;28;20830;-77
2023/02/04 13:24:23;;;;;;;27.90;5.82;;;;;;;;;;5016934;28;20644;-77
2023/02/04 13:26:49;;;;;;;18.17;5.60;;;;;;;;;;5016608;28;20201;-77
2023/02/04 13:29:15;;;;;;;23.33;5.43;;;;;;;;;;5018504;28;20179;-77
2023/02/04 13:31:41;;;;;;;22.90;5.20;;;;;;;;;;5018836;28;20461;-77
2023/02/04 13:34:07;;;;;;;17.80;4.85;;;;;;;;;;5019772;28;20413;-77
2023/02/04 13:36:33;;;;;;;21.47;6.10;;;;;;;;;;5018586;28;20194;-77
2023/02/04 13:38:59;;;;;;;20.50;5.20;;;;;;;;;;5018253;28;20509;-77
2023/02/04 13:41:25;;;;;;;29.33;5.25;;;;;;;;;;5018803;28;20650;-78
2023/02/04 13:43:51;;;;;;;26.73;6.60;;;;;;;;;;5017329;28;20186;-77
2023/02/04 13:46:18;;;;;;;28.75;6.72;;;;;;;;;;5017766;28;20183;-77
2023/02/04 13:48:43;;;;;;;24.42;5.68;;;;;;;;;;5019620;28;20175;-76
2023/02/04 13:51:09;;;;;;;28.50;6.33;;;;;;;;;;5018401;28;20528;-77
2023/02/04 13:53:35;;;;;;;18.73;4.47;;;;;;;;;;5018136;28;20409;-77
2023/02/04 13:56:01;;;;;;;22.53;4.80;;;;;;;;;;5017443;28;20410;-77
2023/02/04 13:58:27;;;;;;;19.43;4.33;;;;;;;;;;5016734;28;20422;-76
2023/02/04 14:00:56;;;;;;;18.80;4.80;;;;;;;;;;5017650;28;20421;-77
2023/02/04 14:03:25;;;;;;;15.30;4.55;;;;;;;;;;5017651;28;20175;-77
2023/02/04 14:05:52;;;;;;;27.42;5.75;;;;;;;;;;5016824;28;20528;-78
2023/02/04 14:08:18;;;;;;;18.85;5.35;;;;;;;;;;5018366;28;20201;-77
2023/02/04 14:10:44;;;;;;;22.08;5.15;;;;;;;;;;5018211;28;20210;-77
2023/02/04 14:13:10;;;;;;;28.50;5.67;;;;;;;;;;5016656;28;20278;-77
2023/02/04 14:15:40;;;;;;;20.10;4.10;;;;;;;;;;5017577;28;20414;-76
2023/02/04 14:18:06;;;;;;;18.83;6.18;;;;;;;;;;5017431;28;20405;-77
2023/02/04 14:20:32;;;;;;;17.47;4.03;;;;;;;;;;5017316;28;20178;-77
2023/02/04 14:22:58;;;;;;;21.70;4.45;;;;;;;;;;5022430;28;20417;-77
2023/02/04 14:25:24;;;;;;;15.57;4.37;;;;;;;;;;5019208;28;20187;-76
2023/02/04 14:27:50;;;;;;;20.37;4.47;;;;;;;;;;5017197;28;20410;-76